Time;durP1;ratioP1;P1;durP2;ratioP2;P2;SDS_P1;SDS_P2;PMS_P1;PMS_P2;Temp;Humidity;BMP_temperature;BMP_pressure;BME280_temperature;BME280_humidity;BME280_pressure;Samples;Min_cycle;Max_cycle;Signal;HPM_P1;HPM_P2
2022/12/02 00:00:49;;;;;;;87.63;67.43;;;;;;;4.13;100.00;102943.22;5012324;28;20437;-43
2022/12/02 00:03:21;;;;;;;76.77;68.57;;;;;;;4.07;100.00;102944.50;5012021;28;20437;-49
2022/12/02 00:05:52;;;;;;;82.13;64.93;;;;;;;3.98;100.00;102945.09;5030998;28;20456;-48
2022/12/02 00:08:22;;;;;;;75.97;65.17;;;;;;;3.98;100.00;102937.16;5032147;28;20428;-44
2022/12/02 00:10:51;;;;;;;80.23;68.90;;;;;;;4.00;100.00;102931.81;5031951;28;20447;-44
2022/12/02 00:13:22;;;;;;;68.00;61.13;;;;;;;3.82;100.00;102926.75;5031577;28;20916;-47
2022/12/02 00:15:55;;;;;;;66.47;59.20;;;;;;;3.83;100.00;102924.97;5012266;28;20531;-45
2022/12/02 00:18:25;;;;;;;63.83;55.30;;;;;;;3.76;100.00;102927.16;5012362;28;20429;-49
2022/12/02 00:20:52;;;;;;;61.87;55.30;;;;;;;3.75;100.00;102928.13;5012151;28;20448;-48
2022/12/02 00:23:21;;;;;;;65.93;58.77;;;;;;;3.73;100.00;102930.00;5011813;28;20448;-45
2022/12/02 00:25:50;;;;;;;72.57;58.80;;;;;;;3.69;100.00;102925.88;5030167;28;20855;-45
2022/12/02 00:28:18;;;;;;;63.30;54.70;;;;;;;3.69;100.00;102933.78;5031256;28;20432;-46
2022/12/02 00:30:46;;;;;;;66.13;59.07;;;;;;;3.68;100.00;102925.97;5031651;28;20432;-43
2022/12/02 00:33:17;;;;;;;66.77;58.53;;;;;;;3.68;100.00;102925.97;5031433;28;20436;-46
2022/12/02 00:35:46;;;;;;;65.90;58.03;;;;;;;3.66;100.00;102928.72;5012700;28;20493;-45
2022/12/02 00:38:13;;;;;;;66.73;59.50;;;;;;;3.62;100.00;102932.47;5011608;28;20449;-45
2022/12/02 00:40:41;;;;;;;66.07;59.13;;;;;;;3.63;100.00;102933.34;5011926;28;20443;-46
2022/12/02 00:48:40;;;;;;;66.67;59.57;;;;;;;3.62;100.00;102931.63;5011664;28;20952;-47
2022/12/02 00:51:09;;;;;;;66.87;59.87;;;;;;;3.60;100.00;102926.47;5011717;28;20441;-46
2022/12/02 00:53:36;;;;;;;71.90;59.03;;;;;;;3.56;100.00;102927.59;5011188;28;20439;-45
2022/12/02 00:56:04;;;;;;;72.93;60.93;;;;;;;3.55;100.00;102925.94;5025010;28;20437;-44
2022/12/02 00:58:32;;;;;;;72.77;64.53;;;;;;;3.55;100.00;102930.34;5031360;28;20432;-45
2022/12/02 01:01:00;;;;;;;75.03;64.10;;;;;;;3.51;100.00;102924.41;5031394;28;20432;-48
2022/12/02 01:03:27;;;;;;;85.03;62.50;;;;;;;3.46;100.00;102934.44;5031200;28;20436;-45
2022/12/02 01:05:55;;;;;;;80.40;64.00;;;;;;;3.44;100.00;102928.38;5031240;28;20451;-47
2022/12/02 01:08:26;;;;;;;85.07;62.50;;;;;;;3.39;100.00;102941.03;5031474;28;20439;-44
2022/12/02 01:10:54;;;;;;;82.67;63.43;;;;;;;3.35;100.00;102931.59;5031608;28;20434;-50
2022/12/02 01:13:24;;;;;;;89.23;65.30;;;;;;;3.34;100.00;102935.19;5031132;28;20432;-47
2022/12/02 01:15:52;;;;;;;81.70;60.90;;;;;;;3.32;100.00;102937.91;5030553;28;20472;-47
2022/12/02 01:18:19;;;;;;;70.43;61.57;;;;;;;3.33;100.00;102936.13;5071023;22;20590;-54
2022/12/02 01:20:47;;;;;;;80.93;63.53;;;;;;;3.32;100.00;102937.06;5051205;28;20431;-50
2022/12/02 01:23:15;;;;;;;76.70;64.07;;;;;;;3.24;100.00;102929.66;5050211;28;20435;-49
2022/12/02 01:25:44;;;;;;;70.83;62.97;;;;;;;3.23;100.00;102932.38;5050726;28;20459;-51
2022/12/02 01:28:11;;;;;;;81.67;67.17;;;;;;;3.21;100.00;102934.25;5051154;28;20455;-54
2022/12/02 01:30:39;;;;;;;90.43;70.90;;;;;;;3.19;100.00;102933.53;5050989;28;20434;-50
2022/12/02 01:33:07;;;;;;;74.60;65.37;;;;;;;3.20;100.00;102929.91;5050870;28;20952;-49
2022/12/02 01:35:34;;;;;;;77.47;69.50;;;;;;;3.19;100.00;102918.56;5050574;28;20830;-48
2022/12/02 01:38:02;;;;;;;79.30;68.53;;;;;;;3.21;100.00;102921.06;5052036;28;20545;-52
2022/12/02 01:40:32;;;;;;;73.73;63.03;;;;;;;3.19;100.00;102917.69;5054645;28;20863;-54
2022/12/02 01:43:01;;;;;;;79.90;65.70;;;;;;;3.18;100.00;102918.63;5054950;28;20430;-54
2022/12/02 01:45:30;;;;;;;69.67;62.27;;;;;;;3.13;100.00;102915.44;5054122;28;20474;-51
2022/12/02 01:47:59;;;;;;;78.23;66.93;;;;;;;3.16;100.00;102924.00;5054609;28;20455;-55
2022/12/02 01:50:28;;;;;;;95.87;64.07;;;;;;;3.13;100.00;102918.09;5054620;28;20439;-49
2022/12/02 01:52:56;;;;;;;72.77;65.00;;;;;;;3.15;100.00;102918.81;5054633;28;20432;-50
2022/12/02 01:55:26;;;;;;;80.97;66.67;;;;;;;3.16;100.00;102917.88;5053596;28;20466;-52
2022/12/02 01:57:54;;;;;;;79.40;67.00;;;;;;;3.13;100.00;102923.34;5045348;28;20843;-56
2022/12/02 02:00:24;;;;;;;80.07;63.70;;;;;;;3.13;100.00;102912.81;5034504;28;20432;-49
2022/12/02 02:02:52;;;;;;;83.13;66.50;;;;;;;3.14;100.00;102917.97;5034443;28;20432;-50
2022/12/02 02:05:22;;;;;;;73.93;64.07;;;;;;;3.06;100.00;102914.13;5033690;28;20823;-50
2022/12/02 02:07:52;;;;;;;74.63;64.97;;;;;;;3.03;100.00;102917.78;5034168;28;20807;-49
2022/12/02 02:10:23;;;;;;;75.37;67.13;;;;;;;3.01;100.00;102917.06;5034538;28;20482;-49
2022/12/02 02:12:51;;;;;;;78.70;66.90;;;;;;;3.02;100.00;102917.88;5034442;28;20435;-52
2022/12/02 02:15:21;;;;;;;81.00;64.50;;;;;;;3.04;100.00;102908.09;5033925;28;21201;-49
2022/12/02 02:17:51;;;;;;;73.47;63.20;;;;;;;3.02;100.00;102902.91;5034048;28;20476;-52
2022/12/02 02:20:23;;;;;;;87.53;70.10;;;;;;;3.04;100.00;102911.59;5034110;28;20433;-54
2022/12/02 02:22:58;;;;;;;79.30;64.60;;;;;;;3.01;100.00;102909.16;5034104;28;20428;-52
2022/12/02 02:25:27;;;;;;;71.23;63.27;;;;;;;3.00;100.00;102910.09;5033641;28;20459;-49
2022/12/02 02:27:57;;;;;;;75.93;65.63;;;;;;;3.01;100.00;102910.94;5034114;28;20894;-52
2022/12/02 02:30:28;;;;;;;81.33;65.70;;;;;;;3.02;100.00;102909.97;5033915;28;20432;-52
2022/12/02 02:32:56;;;;;;;84.27;70.53;;;;;;;3.02;100.00;102909.97;5034267;28;20428;-51
2022/12/02 02:35:24;;;;;;;87.90;65.37;;;;;;;2.96;100.00;102910.34;5033353;28;20547;-52
2022/12/02 02:37:54;;;;;;;75.83;64.87;;;;;;;2.94;100.00;102906.97;5041826;28;20486;-50
2022/12/02 02:40:24;;;;;;;81.70;66.00;;;;;;;2.94;100.00;102904.34;5049050;28;20432;-52
2022/12/02 02:42:55;;;;;;;74.63;66.30;;;;;;;2.94;100.00;102899.91;5033507;28;20523;-51
2022/12/02 02:45:26;;;;;;;83.57;63.40;;;;;;;2.97;100.00;102897.09;5032943;28;20464;-51
2022/12/02 02:47:55;;;;;;;79.20;64.10;;;;;;;2.96;100.00;102891.91;5033792;28;20451;-56
2022/12/02 02:50:24;;;;;;;81.90;65.00;;;;;;;2.98;100.00;102896.16;5032574;28;20433;-51
2022/12/02 02:52:52;;;;;;;76.00;61.80;;;;;;;2.95;100.00;102880.53;5033619;28;20428;-51
2022/12/02 02:55:22;;;;;;;73.17;61.33;;;;;;;2.93;100.00;102889.47;5040396;28;20459;-55
2022/12/02 02:57:50;;;;;;;75.50;62.50;;;;;;;2.94;100.00;102888.53;5044835;28;21054;-51
2022/12/02 03:00:22;;;;;;;75.30;65.63;;;;;;;2.94;100.00;102892.00;5033472;28;20439;-52
2022/12/02 03:02:54;;;;;;;82.43;61.87;;;;;;;2.95;100.00;102883.16;5033354;28;20443;-50
2022/12/02 03:05:22;;;;;;;80.30;65.17;;;;;;;2.97;100.00;102880.44;5032703;28;20464;-51
2022/12/02 03:07:51;;;;;;;79.03;64.27;;;;;;;2.96;100.00;102876.09;5033067;28;20451;-49
2022/12/02 03:10:19;;;;;;;68.40;60.73;;;;;;;2.97;100.00;102869.88;5033168;28;20439;-51
2022/12/02 03:12:52;;;;;;;76.63;62.93;;;;;;;2.98;100.00;102872.44;5033337;28;20462;-50
2022/12/02 03:15:23;;;;;;;71.67;61.87;;;;;;;2.95;100.00;102867.34;5032457;28;21073;-49
2022/12/02 03:17:51;;;;;;;79.33;64.03;;;;;;;2.95;100.00;102877.06;5032809;28;20486;-50
2022/12/02 03:20:20;;;;;;;73.63;63.27;;;;;;;2.94;100.00;102873.56;5032845;28;20436;-50
2022/12/02 03:22:48;;;;;;;77.97;61.03;;;;;;;2.95;100.00;102870.00;5032697;28;20432;-52
2022/12/02 03:25:16;;;;;;;94.73;65.87;;;;;;;2.95;100.00;102869.16;5032340;28;20491;-51
2022/12/02 03:27:44;;;;;;;81.00;65.53;;;;;;;2.96;100.00;102869.03;5032816;28;20448;-49
2022/12/02 03:30:12;;;;;;;74.40;64.37;;;;;;;2.96;100.00;102869.03;5032901;28;20432;-49
2022/12/02 03:32:47;;;;;;;84.50;66.90;;;;;;;2.97;100.00;102869.88;5032791;28;20802;-49
2022/12/02 03:35:14;;;;;;;78.70;66.40;;;;;;;3.01;100.00;102872.25;5031920;28;20460;-49
2022/12/02 03:37:42;;;;;;;75.33;64.93;;;;;;;3.05;100.00;102879.00;5032773;28;20480;-50
2022/12/02 03:40:11;;;;;;;86.07;65.07;;;;;;;3.07;100.00;102878.91;5032580;28;20954;-51
2022/12/02 03:42:39;;;;;;;86.00;66.73;;;;;;;3.11;100.00;102877.75;5032485;28;20955;-52
2022/12/02 03:45:09;;;;;;;82.37;64.93;;;;;;;3.12;100.00;102864.50;5031920;28;20460;-53
2022/12/02 03:47:36;;;;;;;84.83;64.87;;;;;;;3.15;100.00;102871.38;5032303;28;20456;-49
2022/12/02 03:50:07;;;;;;;85.67;67.20;;;;;;;3.17;100.00;102865.06;5032422;28;20432;-50
2022/12/02 03:52:35;;;;;;;84.53;66.37;;;;;;;3.19;100.00;102867.59;5032302;28;20435;-51
2022/12/02 03:55:04;;;;;;;88.70;65.77;;;;;;;3.20;100.00;102867.50;5036886;28;20472;-52
2022/12/02 03:57:32;;;;;;;77.30;63.60;;;;;;;3.21;100.00;102863.91;5045826;28;20452;-50
2022/12/02 04:00:00;;;;;;;84.33;66.27;;;;;;;3.22;100.00;102857.72;5032261;28;20543;-49
2022/12/02 04:02:28;;;;;;;75.90;64.83;;;;;;;3.26;100.00;102866.25;5032020;28;20436;-50
2022/12/02 04:04:56;;;;;;;83.63;65.03;;;;;;;3.29;100.00;102868.69;5031736;28;20520;-50
2022/12/02 04:07:25;;;;;;;83.60;67.23;;;;;;;3.31;100.00;102870.31;5032103;28;20811;-50
2022/12/02 04:09:53;;;;;;;75.80;61.77;;;;;;;3.32;100.00;102869.34;5032173;28;20464;-50
2022/12/02 04:12:20;;;;;;;85.33;67.73;;;;;;;3.32;100.00;102869.34;5032136;28;20439;-54
2022/12/02 04:14:48;;;;;;;83.63;65.63;;;;;;;3.33;100.00;102868.41;5031442;28;20465;-51
2022/12/02 04:17:16;;;;;;;78.70;63.73;;;;;;;3.35;100.00;102860.38;5032010;28;20488;-50
2022/12/02 04:19:44;;;;;;;79.00;62.20;;;;;;;3.34;100.00;102869.28;5031768;28;20567;-53
2022/12/02 04:22:11;;;;;;;86.50;66.63;;;;;;;3.30;100.00;102867.75;5032007;28;20432;-48
2022/12/02 04:24:40;;;;;;;82.13;66.80;;;;;;;3.21;100.00;102860.44;5031197;28;20543;-49
2022/12/02 04:27:08;;;;;;;88.60;65.00;;;;;;;3.21;100.00;102863.06;5031690;28;20452;-52
2022/12/02 04:29:35;;;;;;;93.47;65.53;;;;;;;3.22;100.00;102855.09;5031681;28;20440;-50
2022/12/02 04:32:03;;;;;;;91.47;68.30;;;;;;;3.20;100.00;102856.09;5032049;28;20428;-54
2022/12/02 04:34:31;;;;;;;96.23;69.80;;;;;;;3.19;100.00;102857.91;5031052;28;20459;-48
2022/12/02 04:36:59;;;;;;;91.00;67.90;;;;;;;3.20;100.00;102862.22;5031887;28;20812;-50
2022/12/02 04:39:26;;;;;;;91.97;68.60;;;;;;;3.17;100.00;102851.88;5031889;28;20493;-50
2022/12/02 04:41:55;;;;;;;92.10;66.27;;;;;;;3.16;100.00;102862.53;5031658;28;20515;-47
2022/12/02 04:44:23;;;;;;;92.40;70.27;;;;;;;3.15;100.00;102860.81;5030980;28;21045;-52
2022/12/02 04:46:50;;;;;;;80.73;66.30;;;;;;;3.10;100.00;102866.41;5031722;28;20434;-55
2022/12/02 04:49:18;;;;;;;84.63;67.87;;;;;;;3.10;100.00;102865.56;5035662;28;20868;-53
2022/12/02 04:51:46;;;;;;;87.90;63.67;;;;;;;3.09;100.00;102856.78;5043726;28;20863;-49
2022/12/02 04:54:14;;;;;;;81.73;63.67;;;;;;;3.07;100.00;102860.47;5030604;28;20547;-50
2022/12/02 04:56:41;;;;;;;87.03;65.17;;;;;;;3.07;100.00;102855.19;5050455;28;20438;-49
2022/12/02 04:59:10;;;;;;;90.70;69.93;;;;;;;3.03;100.00;102858.97;5032237;28;20495;-53
2022/12/02 05:01:38;;;;;;;84.70;65.90;;;;;;;3.02;100.00;102865.16;5031654;28;20782;-50
2022/12/02 05:04:05;;;;;;;81.97;63.37;;;;;;;2.96;100.00;102863.75;5030893;28;20460;-52
2022/12/02 05:06:33;;;;;;;88.40;64.20;;;;;;;2.96;100.00;102860.28;5031408;28;20428;-49
2022/12/02 05:09:01;;;;;;;99.37;70.23;;;;;;;2.95;100.00;102866.50;5031235;28;20935;-49
2022/12/02 05:11:28;;;;;;;86.33;68.70;;;;;;;2.95;100.00;102871.78;5031592;28;20436;-50
2022/12/02 05:14:03;;;;;;;87.53;72.37;;;;;;;2.94;100.00;102870.94;5033375;28;20994;-51
2022/12/02 05:16:32;;;;;;;96.00;69.67;;;;;;;2.93;100.00;102860.50;5035472;28;20432;-47
2022/12/02 05:19:00;;;;;;;91.77;65.87;;;;;;;2.95;100.00;102861.25;5035269;28;20471;-51
2022/12/02 05:21:27;;;;;;;85.93;66.50;;;;;;;2.96;100.00;102868.19;5035066;28;20434;-49
2022/12/02 05:23:55;;;;;;;88.67;65.67;;;;;;;2.95;100.00;102863.88;5034544;28;20460;-52
2022/12/02 05:26:23;;;;;;;95.27;67.60;;;;;;;2.95;100.00;102864.72;5035184;28;20436;-52
2022/12/02 05:28:50;;;;;;;87.17;66.00;;;;;;;2.93;100.00;102861.31;5034867;28;20448;-48
2022/12/02 05:31:18;;;;;;;86.83;70.10;;;;;;;2.93;100.00;102852.59;5035034;28;20526;-50
2022/12/02 05:33:47;;;;;;;96.97;64.10;;;;;;;2.93;100.00;102852.59;5034133;28;20455;-49
2022/12/02 05:36:15;;;;;;;84.07;64.97;;;;;;;2.92;100.00;102850.88;5034792;28;20436;-52
2022/12/02 05:38:42;;;;;;;90.23;65.73;;;;;;;2.92;100.00;102851.75;5034809;28;20471;-51
2022/12/02 05:41:10;;;;;;;85.43;63.73;;;;;;;2.89;100.00;102861.63;5034713;28;20443;-49
2022/12/02 05:43:40;;;;;;;100.10;71.10;;;;;;;2.84;100.00;102851.34;5034010;28;20815;-50
2022/12/02 05:46:13;;;;;;;97.33;69.53;;;;;;;2.82;100.00;102850.59;5034538;28;20923;-52
2022/12/02 05:48:42;;;;;;;87.90;64.80;;;;;;;2.81;100.00;102854.16;5034397;28;20448;-49
2022/12/02 05:51:12;;;;;;;95.10;67.17;;;;;;;2.79;100.00;102856.06;5034507;28;20946;-49
2022/12/02 05:53:41;;;;;;;79.03;61.70;;;;;;;2.76;100.00;102857.09;5034202;28;20471;-52
2022/12/02 05:56:13;;;;;;;70.93;58.10;;;;;;;2.78;100.00;102860.47;5048782;28;20435;-51
2022/12/02 05:58:40;;;;;;;79.37;62.40;;;;;;;2.75;100.00;102863.31;5038755;28;20476;-51
2022/12/02 06:01:19;;;;;;;85.30;65.33;;;;;;;2.77;100.00;102864.09;5034315;28;20544;-51
2022/12/02 06:03:49;;;;;;;83.13;61.93;;;;;;;2.79;100.00;102867.47;5033918;28;20424;-49
2022/12/02 06:06:22;;;;;;;83.23;65.20;;;;;;;2.78;100.00;102865.75;5034641;28;20467;-53
2022/12/02 06:08:50;;;;;;;75.47;65.47;;;;;;;2.77;100.00;102864.09;5034150;28;20498;-51
2022/12/02 06:11:28;;;;;;;84.37;64.90;;;;;;;2.78;100.00;102862.25;5034237;28;20774;-51
2022/12/02 06:13:58;;;;;;;77.93;66.20;;;;;;;2.82;100.00;102860.28;5033864;28;20542;-49
2022/12/02 06:16:27;;;;;;;82.43;64.47;;;;;;;2.85;100.00;102870.66;5034358;28;20436;-48
2022/12/02 06:18:56;;;;;;;85.00;65.77;;;;;;;2.85;100.00;102868.00;5033907;28;20515;-52
2022/12/02 06:21:25;;;;;;;84.23;64.83;;;;;;;2.86;100.00;102872.34;5034172;28;20443;-50
2022/12/02 06:23:57;;;;;;;82.73;61.37;;;;;;;2.87;100.00;102869.59;5033293;28;20448;-50
2022/12/02 06:26:25;;;;;;;76.87;60.93;;;;;;;2.87;100.00;102869.59;5034275;28;20522;-48
2022/12/02 06:28:57;;;;;;;82.40;59.80;;;;;;;2.87;100.00;102874.88;5033892;28;21073;-50
2022/12/02 06:31:30;;;;;;;91.47;63.57;;;;;;;2.87;100.00;102877.50;5033882;28;20922;-49
2022/12/02 06:34:00;;;;;;;90.47;62.40;;;;;;;2.87;100.00;102885.41;5033129;28;20458;-52
2022/12/02 06:36:31;;;;;;;95.90;66.50;;;;;;;2.82;100.00;102887.50;5033778;28;20530;-50
2022/12/02 06:39:02;;;;;;;92.10;68.30;;;;;;;2.83;100.00;102883.06;5033681;28;20592;-49
2022/12/02 06:41:31;;;;;;;107.50;70.20;;;;;;;2.83;100.00;102883.94;5033983;28;20424;-50
2022/12/02 06:46:46;;;;;;;92.50;63.70;;;;;;;2.82;100.00;102892.75;5033470;28;20527;-48
2022/12/02 06:49:19;;;;;;;90.70;64.13;;;;;;;2.80;100.00;102892.03;5033585;28;20436;-49
2022/12/02 06:51:52;;;;;;;83.40;64.07;;;;;;;2.78;100.00;102896.50;5033902;28;20432;-52
2022/12/02 06:54:23;;;;;;;78.60;64.40;;;;;;;2.78;100.00;102896.50;5033210;28;20467;-50
2022/12/02 06:56:51;;;;;;;89.63;67.73;;;;;;;2.78;100.00;102899.16;5049911;28;20435;-47
2022/12/02 06:59:22;;;;;;;81.30;62.30;;;;;;;2.75;100.00;102905.47;5033318;28;20472;-49
2022/12/02 07:01:54;;;;;;;82.03;65.57;;;;;;;2.73;100.00;102907.34;5033596;28;20862;-49
2022/12/02 07:04:36;;;;;;;83.07;66.80;;;;;;;2.73;100.00;102906.50;5032851;28;20868;-49
2022/12/02 07:07:16;;;;;;;84.47;63.87;;;;;;;2.74;100.00;102914.31;5033219;28;20954;-50
2022/12/02 07:09:46;;;;;;;102.73;64.30;;;;;;;2.70;100.00;102918.06;5033468;28;20432;-50
2022/12/02 07:12:18;;;;;;;81.40;64.83;;;;;;;2.69;100.00;102931.31;5033855;28;20450;-50
2022/12/02 07:14:49;;;;;;;78.77;65.67;;;;;;;2.60;100.00;102940.63;5032875;28;20472;-50
2022/12/02 07:17:23;;;;;;;82.30;61.40;;;;;;;2.56;100.00;102935.66;5033416;28;20499;-48
2022/12/02 07:19:58;;;;;;;88.17;64.67;;;;;;;2.46;100.00;102937.97;5033106;28;20476;-49
2022/12/02 07:22:32;;;;;;;95.70;69.10;;;;;;;2.41;100.00;102924.25;5033170;28;20535;-49
2022/12/02 07:25:18;;;;;;;72.30;63.23;;;;;;;2.39;100.00;102931.38;5032448;28;20463;-50
2022/12/02 07:27:48;;;;;;;82.13;65.40;;;;;;;2.37;100.00;102940.31;5033284;28;20812;-47
2022/12/02 07:30:22;;;;;;;86.47;66.93;;;;;;;2.37;100.00;102942.94;5032932;28;20428;-52
2022/12/02 07:32:50;;;;;;;89.30;63.23;;;;;;;2.36;100.00;102931.56;5032600;28;20435;-50
2022/12/02 07:35:17;;;;;;;95.60;66.60;;;;;;;2.38;100.00;102939.38;5031874;28;20463;-49
2022/12/02 07:37:47;;;;;;;75.53;64.00;;;;;;;2.41;100.00;102940.03;5032471;28;20975;-48
2022/12/02 07:40:16;;;;;;;80.63;61.87;;;;;;;2.38;100.00;102948.13;5032612;28;20842;-47
2022/12/02 07:42:44;;;;;;;80.60;66.57;;;;;;;2.38;100.00;102944.63;5032527;28;20436;-49
2022/12/02 07:45:12;;;;;;;88.60;64.33;;;;;;;2.42;100.00;102951.44;5031677;28;20535;-50
2022/12/02 07:47:40;;;;;;;78.93;63.90;;;;;;;2.44;100.00;102946.91;5032594;28;20452;-51
2022/12/02 07:50:09;;;;;;;81.87;60.77;;;;;;;2.47;100.00;102955.50;5032578;28;20530;-49
2022/12/02 07:52:36;;;;;;;80.00;64.23;;;;;;;2.49;100.00;102952.75;5032586;28;20432;-46
2022/12/02 07:55:06;;;;;;;75.23;61.40;;;;;;;2.51;100.00;102951.72;5037250;28;20635;-48
2022/12/02 07:57:34;;;;;;;79.33;62.63;;;;;;;2.52;100.00;102936.75;5045976;28;20440;-48
2022/12/02 08:00:02;;;;;;;82.87;64.07;;;;;;;2.55;100.00;102941.84;5032026;28;20478;-49
2022/12/02 08:02:30;;;;;;;83.80;66.80;;;;;;;2.57;100.00;102940.81;5032397;28;20852;-48
2022/12/02 08:04:58;;;;;;;75.37;62.30;;;;;;;2.59;100.00;102946.84;5031617;28;20470;-49
2022/12/02 08:07:26;;;;;;;82.00;61.83;;;;;;;2.61;100.00;102947.59;5031904;28;20448;-47
2022/12/02 08:09:53;;;;;;;70.13;58.67;;;;;;;2.60;100.00;102945.03;5032101;28;20803;-49
2022/12/02 08:12:22;;;;;;;76.73;59.60;;;;;;;2.57;100.00;102948.72;5031997;28;20439;-48
2022/12/02 08:14:50;;;;;;;67.80;59.40;;;;;;;2.56;100.00;102946.19;5031410;28;20863;-48
2022/12/02 08:17:18;;;;;;;78.60;61.60;;;;;;;2.56;100.00;102949.69;5032119;28;20546;-51
2022/12/02 08:19:45;;;;;;;71.20;56.67;;;;;;;2.55;100.00;102947.13;5032246;28;20436;-52
2022/12/02 08:22:13;;;;;;;72.40;61.50;;;;;;;2.53;100.00;102941.09;5032268;28;20475;-53
2022/12/02 08:24:41;;;;;;;70.23;60.40;;;;;;;2.54;100.00;102943.63;5031306;28;21011;-50
2022/12/02 08:27:08;;;;;;;76.37;59.30;;;;;;;2.54;100.00;102948.91;5032174;28;20804;-49
2022/12/02 08:29:37;;;;;;;80.67;63.07;;;;;;;2.55;100.00;102953.25;5032352;28;20436;-52
2022/12/02 08:32:05;;;;;;;69.57;61.40;;;;;;;2.56;100.00;102952.31;5032047;28;20443;-54
2022/12/02 08:34:33;;;;;;;80.40;63.87;;;;;;;2.54;100.00;102954.16;5031458;28;20473;-48
2022/12/02 08:37:00;;;;;;;82.90;61.47;;;;;;;2.57;100.00;102959.25;5032038;28;20452;-51
2022/12/02 08:39:28;;;;;;;67.83;60.40;;;;;;;2.58;100.00;102957.47;5032162;28;20443;-51
2022/12/02 08:41:56;;;;;;;65.77;58.87;;;;;;;2.54;100.00;102961.25;5032101;28;20495;-51
2022/12/02 08:44:23;;;;;;;65.40;58.67;;;;;;;2.51;100.00;102958.78;5031319;28;21094;-48
2022/12/02 08:46:52;;;;;;;68.33;60.83;;;;;;;2.50;100.00;102963.22;5031964;28;20432;-53
2022/12/02 08:49:21;;;;;;;73.23;58.00;;;;;;;2.50;100.00;102965.00;5035141;28;20442;-50
2022/12/02 08:51:49;;;;;;;63.77;57.50;;;;;;;2.32;100.00;102956.38;5035795;28;20460;-50
2022/12/02 08:54:17;;;;;;;66.70;59.57;;;;;;;2.29;100.00;102956.56;5035267;28;20466;-52
2022/12/02 08:56:45;;;;;;;64.10;57.80;;;;;;;2.32;100.00;102956.38;5055110;28;20438;-51
2022/12/02 08:59:13;;;;;;;66.60;58.20;;;;;;;2.37;100.00;102951.69;5035584;28;20982;-52
2022/12/02 09:01:40;;;;;;;71.90;59.37;;;;;;;2.40;100.00;102948.03;5035533;28;20468;-49
2022/12/02 09:04:10;;;;;;;70.07;60.70;;;;;;;2.42;100.00;102951.44;5034914;28;20470;-54
2022/12/02 09:06:37;;;;;;;66.00;59.00;;;;;;;2.44;100.00;102954.81;5035340;28;20443;-49
2022/12/02 09:09:05;;;;;;;69.97;60.07;;;;;;;2.46;100.00;102951.16;5035601;28;20535;-49
2022/12/02 09:11:34;;;;;;;66.63;58.90;;;;;;;2.54;100.00;102954.16;5035327;28;20483;-52
2022/12/02 09:14:02;;;;;;;65.23;57.87;;;;;;;2.56;100.00;102957.56;5034601;28;21077;-47
2022/12/02 09:16:30;;;;;;;68.37;59.53;;;;;;;2.60;100.00;102956.44;5035385;28;20514;-50
2022/12/02 09:18:57;;;;;;;68.77;55.67;;;;;;;2.66;100.00;102960.50;5035004;28;20463;-51
2022/12/02 09:21:26;;;;;;;74.47;56.53;;;;;;;2.71;100.00;102963.72;5035360;28;20471;-53
2022/12/02 09:23:54;;;;;;;61.70;55.10;;;;;;;2.72;100.00;102966.25;5034669;28;20451;-49
2022/12/02 09:26:21;;;;;;;64.37;56.60;;;;;;;2.79;100.00;102959.69;5035243;28;20439;-52
2022/12/02 09:28:49;;;;;;;69.97;56.70;;;;;;;2.68;100.00;102964.75;5035105;28;20902;-52
2022/12/02 09:31:17;;;;;;;73.70;59.53;;;;;;;2.78;100.00;102962.38;5034875;28;20523;-48
2022/12/02 09:33:44;;;;;;;60.83;54.53;;;;;;;2.76;100.00;102957.22;5034468;28;20439;-50
2022/12/02 09:36:12;;;;;;;67.93;56.77;;;;;;;2.81;100.00;102958.75;5035130;28;20954;-50
2022/12/02 09:38:41;;;;;;;65.10;54.90;;;;;;;2.82;100.00;102957.78;5034840;28;20527;-49
2022/12/02 09:41:09;;;;;;;69.73;59.90;;;;;;;2.74;100.00;102959.13;5034772;28;20498;-52
2022/12/02 09:43:37;;;;;;;61.70;54.90;;;;;;;2.77;100.00;102958.94;5034034;28;20432;-50
2022/12/02 09:46:05;;;;;;;63.63;56.57;;;;;;;2.86;100.00;102957.53;5034732;28;20428;-54
2022/12/02 09:48:33;;;;;;;64.20;57.20;;;;;;;2.89;100.00;102956.50;5034568;28;20979;-51
2022/12/02 09:51:01;;;;;;;62.03;54.53;;;;;;;2.88;100.00;102962.69;5034888;28;20435;-53
2022/12/02 09:53:33;;;;;;;69.47;60.03;;;;;;;2.90;100.00;102955.56;5034208;28;20878;-51
2022/12/02 09:56:03;;;;;;;68.93;55.93;;;;;;;2.91;100.00;102951.97;5047930;28;20840;-50
2022/12/02 09:58:31;;;;;;;71.93;56.27;;;;;;;2.87;100.00;102955.75;5039688;28;20742;-52
2022/12/02 10:00:58;;;;;;;68.80;55.50;;;;;;;2.94;100.00;102964.94;5034687;28;20495;-54
2022/12/02 10:03:28;;;;;;;75.20;62.70;;;;;;;3.03;100.00;102961.75;5034267;28;20436;-50
2022/12/02 10:05:56;;;;;;;71.07;59.43;;;;;;;3.10;100.00;102973.63;5034203;28;20449;-49
2022/12/02 10:08:27;;;;;;;68.63;57.93;;;;;;;3.09;100.00;102964.88;5034363;28;20452;-53
2022/12/02 10:10:56;;;;;;;63.07;56.23;;;;;;;3.09;100.00;102962.22;5034275;28;20431;-52
2022/12/02 10:13:27;;;;;;;64.00;55.87;;;;;;;3.11;100.00;102962.97;5034079;28;20883;-51
2022/12/02 10:15:55;;;;;;;65.10;55.63;;;;;;;3.10;100.00;102965.72;5054071;28;20439;-54
2022/12/02 10:18:26;;;;;;;67.50;57.10;;;;;;;3.12;100.00;102962.03;5054049;28;20513;-49
2022/12/02 10:20:54;;;;;;;63.60;56.43;;;;;;;3.07;100.00;102963.28;5054217;28;21254;-51
2022/12/02 10:23:23;;;;;;;64.97;56.10;;;;;;;2.96;100.00;102963.91;5053942;28;20442;-53
2022/12/02 10:25:54;;;;;;;72.63;57.70;;;;;;;3.01;100.00;102958.38;5053377;28;20985;-46
2022/12/02 10:28:29;;;;;;;66.43;57.40;;;;;;;3.10;100.00;102955.19;5054241;28;20815;-48
2022/12/02 10:31:03;;;;;;;70.70;55.60;;;;;;;3.10;100.00;102958.66;5053989;28;20437;-45
2022/12/02 10:33:34;;;;;;;66.03;57.10;;;;;;;3.16;100.00;102963.56;5053528;28;20415;-52
2022/12/02 10:36:02;;;;;;;66.20;59.00;;;;;;;3.14;100.00;102957.50;5053805;28;20439;-50
2022/12/02 10:38:33;;;;;;;68.43;59.07;;;;;;;3.26;100.00;102955.91;5054042;28;20455;-51
2022/12/02 10:41:23;;;;;;;76.30;59.17;;;;;;;3.33;100.00;102947.53;5054168;28;20505;-53
2022/12/02 10:44:05;;;;;;;74.77;58.80;;;;;;;3.48;100.00;102937.81;5049593;28;20840;-49
2022/12/02 10:46:34;;;;;;;67.00;58.60;;;;;;;3.56;100.00;102943.44;5053529;28;20434;-53
2022/12/02 10:49:16;;;;;;;63.27;56.57;;;;;;;3.61;100.00;102944.00;5053725;28;20436;-53
2022/12/02 10:51:44;;;;;;;64.10;56.50;;;;;;;3.67;100.00;102943.63;5053978;28;20799;-52
2022/12/02 10:54:22;;;;;;;66.77;59.47;;;;;;;3.75;100.00;102938.69;5052878;28;20463;-48
2022/12/02 10:56:50;;;;;;;71.83;59.27;;;;;;;3.80;100.00;102938.38;5070094;28;20427;-55
2022/12/02 10:59:19;;;;;;;66.50;58.13;;;;;;;3.86;100.00;102936.19;5073661;28;20476;-52
2022/12/02 11:01:47;;;;;;;64.80;57.53;;;;;;;3.89;100.00;102932.50;5073702;28;20504;-50
2022/12/02 11:04:15;;;;;;;64.17;57.27;;;;;;;3.97;100.00;102934.66;5072938;28;20835;-50
2022/12/02 11:06:44;;;;;;;65.83;58.10;;;;;;;4.00;100.00;102939.72;5073212;28;20430;-48
2022/12/02 11:09:16;;;;;;;65.93;58.73;;;;;;;4.07;100.00;102933.94;5073337;28;20968;-49
2022/12/02 11:12:29;;;;;;;65.63;57.07;;;;;;;4.11;100.00;102924.88;5072750;28;20442;-49
2022/12/02 11:14:58;;;;;;;65.93;58.10;;;;;;;4.19;100.00;102938.41;5072694;28;20464;-52
2022/12/02 11:17:46;;;;;;;63.43;56.63;;;;;;;4.25;100.00;102935.34;5073217;28;20862;-47
2022/12/02 11:20:39;;;;;;;67.97;59.33;;;;;;;4.41;100.00;102937.81;5073321;28;20437;-52
2022/12/02 11:23:24;;;;;;;69.77;62.07;;;;;;;4.42;100.00;102932.41;5072867;28;20553;-49
2022/12/02 11:26:04;;;;;;;64.27;57.33;;;;;;;4.47;100.00;102929.47;5072606;28;20462;-52
2022/12/02 11:28:34;;;;;;;67.67;59.50;;;;;;;4.49;100.00;102927.56;5073103;28;20752;-54